createdAt,value
2023-01-30T00:00:14.354Z,1017.66
2023-01-30T00:01:13.829Z,1017.62
2023-01-30T00:02:14.536Z,1017.49
2023-01-30T00:03:13.805Z,1017.58
2023-01-30T00:04:17.124Z,1017.66
2023-01-30T00:05:13.732Z,1017.61
2023-01-30T00:06:13.709Z,1017.70
2023-01-30T00:07:13.776Z,1017.73
2023-01-30T00:08:13.771Z,1017.69
2023-01-30T00:09:13.957Z,1017.70
2023-01-30T00:10:12.918Z,1017.69
2023-01-30T00:11:13.223Z,1017.60
2023-01-30T00:12:13.181Z,1017.65
2023-01-30T00:13:13.352Z,1017.58
2023-01-30T00:14:13.479Z,1017.65
2023-01-30T00:15:13.574Z,1017.64
2023-01-30T00:16:14.066Z,1017.77
2023-01-30T00:17:13.311Z,1017.85
2023-01-30T00:18:13.249Z,1017.75
2023-01-30T00:19:13.403Z,1017.77
2023-01-30T00:20:15.677Z,1017.75
2023-01-30T00:21:13.810Z,1017.77
2023-01-30T00:22:14.264Z,1017.74
2023-01-30T00:23:13.270Z,1017.76
2023-01-30T00:24:13.629Z,1017.64
2023-01-30T00:25:13.857Z,1017.79
2023-01-30T00:26:13.246Z,1017.78
2023-01-30T00:27:13.310Z,1017.75
2023-01-30T00:28:13.511Z,1017.69
2023-01-30T00:29:19.230Z,1017.69
2023-01-30T00:30:51.276Z,1017.60
2023-01-30T00:31:13.412Z,1017.54
2023-01-30T00:32:13.579Z,1017.54
2023-01-30T00:33:15.316Z,1017.54
2023-01-30T00:34:13.861Z,1017.53
2023-01-30T00:35:13.914Z,1017.55
2023-01-30T00:36:12.800Z,1017.55
2023-01-30T00:37:18.804Z,1017.62
2023-01-30T00:38:14.030Z,1017.54
2023-01-30T00:39:13.115Z,1017.47
2023-01-30T00:40:13.466Z,1017.35
2023-01-30T00:41:13.606Z,1017.41
2023-01-30T00:42:13.752Z,1017.36
2023-01-30T00:43:13.997Z,1017.32
2023-01-30T00:44:13.382Z,1017.27
2023-01-30T00:45:13.362Z,1017.10
2023-01-30T00:46:13.316Z,1017.20
2023-01-30T00:47:13.802Z,1017.24
2023-01-30T00:48:14.102Z,1017.24
2023-01-30T00:49:13.177Z,1017.13
2023-01-30T00:50:13.169Z,1017.06
2023-01-30T00:51:13.428Z,1016.98
2023-01-30T00:52:13.755Z,1017.00
2023-01-30T00:53:13.810Z,1017.06
2023-01-30T00:54:13.895Z,1016.98
2023-01-30T00:55:12.865Z,1016.97
2023-01-30T00:56:13.980Z,1017.04
2023-01-30T00:57:12.968Z,1017.02
2023-01-30T00:58:12.922Z,1017.15
2023-01-30T00:59:13.217Z,1017.18
2023-01-30T01:00:13.105Z,1017.19
2023-01-30T01:01:13.101Z,1017.17
2023-01-30T01:02:13.159Z,1017.16
2023-01-30T01:03:13.475Z,1017.14
2023-01-30T01:04:13.759Z,1016.98
2023-01-30T01:05:13.852Z,1017.00
2023-01-30T01:06:14.190Z,1016.95
2023-01-30T01:07:13.137Z,1016.92
2023-01-30T01:08:13.415Z,1017.00
2023-01-30T01:09:13.896Z,1016.89
2023-01-30T01:10:12.960Z,1016.92
2023-01-30T01:11:13.124Z,1016.98
2023-01-30T01:12:13.518Z,1016.95
2023-01-30T01:13:13.608Z,1016.90
2023-01-30T01:14:14.116Z,1016.97
2023-01-30T01:15:13.131Z,1016.85
2023-01-30T01:16:13.165Z,1016.86
2023-01-30T01:17:13.068Z,1016.81
2023-01-30T01:18:13.516Z,1016.87
2023-01-30T01:19:13.513Z,1016.79
2023-01-30T01:20:13.736Z,1016.68
2023-01-30T01:21:13.654Z,1016.67
2023-01-30T01:22:13.682Z,1016.67
2023-01-30T01:23:13.693Z,1016.60
2023-01-30T01:24:13.628Z,1016.64
2023-01-30T01:25:13.601Z,1016.63
2023-01-30T01:26:13.540Z,1016.59
2023-01-30T01:27:13.452Z,1016.64
2023-01-30T01:28:13.492Z,1016.71
2023-01-30T01:29:13.741Z,1016.69
2023-01-30T01:30:13.850Z,1016.72
2023-01-30T01:31:14.053Z,1016.68
2023-01-30T01:32:13.276Z,1016.66
2023-01-30T01:33:13.550Z,1016.65
2023-01-30T01:34:13.662Z,1016.58
2023-01-30T01:35:13.672Z,1016.57
2023-01-30T01:36:24.372Z,1016.77
2023-01-30T01:37:13.063Z,1016.57
2023-01-30T01:38:12.913Z,1016.72
2023-01-30T01:39:13.234Z,1016.69
2023-01-30T01:40:13.305Z,1016.59
2023-01-30T01:41:13.415Z,1016.56
2023-01-30T01:42:13.814Z,1016.59
2023-01-30T01:43:13.957Z,1016.39
2023-01-30T01:44:12.887Z,1016.58
2023-01-30T01:45:12.839Z,1016.51
2023-01-30T01:46:13.855Z,1016.52
2023-01-30T01:47:12.857Z,1016.48
2023-01-30T01:48:13.864Z,1016.52
2023-01-30T01:49:14.259Z,1016.46
2023-01-30T01:50:13.165Z,1016.40
2023-01-30T01:51:13.155Z,1016.40
2023-01-30T01:52:13.110Z,1016.39
2023-01-30T01:53:13.364Z,1016.31
2023-01-30T01:54:13.348Z,1016.38
2023-01-30T01:55:13.356Z,1016.35
2023-01-30T01:56:13.501Z,1016.47
2023-01-30T01:57:13.455Z,1016.42
2023-01-30T01:58:13.410Z,1016.46
2023-01-30T01:59:14.673Z,1016.22
2023-01-30T02:00:13.676Z,1016.42
2023-01-30T02:01:13.747Z,1016.39
2023-01-30T02:02:13.775Z,1016.36
2023-01-30T02:03:13.936Z,1016.30
2023-01-30T02:04:13.026Z,1016.30
2023-01-30T02:05:12.968Z,1016.24
2023-01-30T02:06:12.938Z,1016.18
2023-01-30T02:07:12.917Z,1016.30
2023-01-30T02:08:12.936Z,1016.18
2023-01-30T02:09:13.008Z,1016.30
2023-01-30T02:10:13.071Z,1016.28
2023-01-30T02:11:13.098Z,1016.13
2023-01-30T02:12:13.011Z,1016.13
2023-01-30T02:13:12.891Z,1016.01
2023-01-30T02:14:12.839Z,1016.05
2023-01-30T02:15:13.794Z,1016.01
2023-01-30T02:16:13.838Z,1016.05
2023-01-30T02:17:14.724Z,1015.86
2023-01-30T02:18:13.830Z,1015.95
2023-01-30T02:19:14.062Z,1015.90
2023-01-30T02:20:12.961Z,1015.88
2023-01-30T02:21:13.051Z,1015.89
2023-01-30T02:22:13.306Z,1015.91
2023-01-30T02:23:13.698Z,1015.90
2023-01-30T02:24:13.951Z,1015.87
2023-01-30T02:25:12.869Z,1015.90
2023-01-30T02:26:13.825Z,1015.84
2023-01-30T02:27:14.184Z,1015.86
2023-01-30T02:28:13.099Z,1015.75
2023-01-30T02:29:13.047Z,1015.69
2023-01-30T02:30:13.350Z,1015.72
2023-01-30T02:31:13.352Z,1015.69
2023-01-30T02:32:13.236Z,1015.70
2023-01-30T02:33:13.155Z,1015.70
2023-01-30T02:34:13.141Z,1015.73
2023-01-30T02:35:13.157Z,1015.76
2023-01-30T02:36:13.109Z,1015.69
2023-01-30T02:37:13.084Z,1015.67
2023-01-30T02:38:13.028Z,1015.66
2023-01-30T02:39:13.162Z,1015.55
2023-01-30T02:40:13.144Z,1015.51
2023-01-30T02:41:13.167Z,1015.54
2023-01-30T02:42:13.153Z,1015.60
2023-01-30T02:43:13.140Z,1015.60
2023-01-30T02:44:13.038Z,1015.55
2023-01-30T02:45:13.020Z,1015.49
2023-01-30T02:46:12.959Z,1015.45
2023-01-30T02:47:12.911Z,1015.53
2023-01-30T02:48:12.983Z,1015.51
2023-01-30T02:49:13.319Z,1015.61
2023-01-30T02:50:13.161Z,1015.40
2023-01-30T02:51:13.068Z,1015.46
2023-01-30T02:52:13.154Z,1015.39
2023-01-30T02:53:13.287Z,1015.60
2023-01-30T02:54:13.260Z,1015.62
2023-01-30T02:55:13.227Z,1015.48
2023-01-30T02:56:13.189Z,1015.62
2023-01-30T02:57:13.085Z,1015.50
2023-01-30T02:58:13.011Z,1015.49
2023-01-30T02:59:12.984Z,1015.56
2023-01-30T03:00:13.081Z,1015.52
2023-01-30T03:01:13.130Z,1015.58
2023-01-30T03:02:13.069Z,1015.57
2023-01-30T03:03:13.222Z,1015.44
2023-01-30T03:04:13.145Z,1015.46
2023-01-30T03:05:13.168Z,1015.49
2023-01-30T03:06:13.117Z,1015.45
2023-01-30T03:07:13.351Z,1015.51
2023-01-30T03:08:13.280Z,1015.37
2023-01-30T03:09:13.313Z,1015.41
2023-01-30T03:10:13.233Z,1015.38
2023-01-30T03:11:13.484Z,1015.41
2023-01-30T03:12:13.413Z,1015.36
2023-01-30T03:13:13.513Z,1015.42
2023-01-30T03:14:13.642Z,1015.36
2023-01-30T03:15:13.613Z,1015.35
2023-01-30T03:16:13.985Z,1015.38
2023-01-30T03:17:12.886Z,1015.24
2023-01-30T03:18:13.005Z,1015.28
2023-01-30T03:19:13.192Z,1015.23
2023-01-30T03:20:13.125Z,1015.27
2023-01-30T03:21:12.977Z,1015.18
2023-01-30T03:22:13.168Z,1015.19
2023-01-30T03:23:13.606Z,1015.14
2023-01-30T03:24:13.521Z,1015.16
2023-01-30T03:25:13.696Z,1015.12
2023-01-30T03:26:13.692Z,1015.13
2023-01-30T03:27:13.774Z,1015.11
2023-01-30T03:28:13.707Z,1015.07
2023-01-30T03:29:14.184Z,1015.10
2023-01-30T03:30:13.283Z,1014.96
2023-01-30T03:31:13.221Z,1014.96
2023-01-30T03:32:13.236Z,1014.78
2023-01-30T03:33:13.299Z,1014.93
2023-01-30T03:34:13.241Z,1014.97
2023-01-30T03:35:13.410Z,1015.03
2023-01-30T03:36:13.373Z,1014.97
2023-01-30T03:37:13.302Z,1014.95
2023-01-30T03:38:13.325Z,1014.96
2023-01-30T03:39:13.289Z,1015.03
2023-01-30T03:40:13.325Z,1014.95
2023-01-30T03:41:13.370Z,1014.88
2023-01-30T03:42:13.611Z,1014.85
2023-01-30T03:43:13.745Z,1014.78
2023-01-30T03:44:13.917Z,1014.75
2023-01-30T03:45:12.937Z,1014.58
2023-01-30T03:46:13.167Z,1014.81
2023-01-30T03:47:13.132Z,1014.68
2023-01-30T03:48:13.091Z,1014.72
2023-01-30T03:49:13.159Z,1014.72
2023-01-30T03:50:13.303Z,1014.59
2023-01-30T03:51:13.417Z,1014.76
2023-01-30T03:52:13.284Z,1014.70
2023-01-30T03:53:13.252Z,1014.63
2023-01-30T03:54:13.620Z,1014.67
2023-01-30T03:55:13.531Z,1014.72
2023-01-30T03:56:13.661Z,1014.72
2023-01-30T03:57:13.933Z,1014.64
2023-01-30T03:58:12.976Z,1014.58
2023-01-30T03:59:12.954Z,1014.47
2023-01-30T04:00:13.017Z,1014.61
2023-01-30T04:01:13.069Z,1014.55
2023-01-30T04:02:13.178Z,1014.51
2023-01-30T04:03:13.078Z,1014.50
2023-01-30T04:04:13.202Z,1014.58
2023-01-30T04:05:13.065Z,1014.63
2023-01-30T04:06:13.080Z,1014.51
2023-01-30T04:07:13.133Z,1014.50
2023-01-30T04:08:13.234Z,1014.56
2023-01-30T04:09:13.159Z,1014.58
2023-01-30T04:10:13.180Z,1014.46
2023-01-30T04:11:13.386Z,1014.52
2023-01-30T04:12:13.497Z,1014.58
2023-01-30T04:13:13.486Z,1014.58
2023-01-30T04:14:13.567Z,1014.56
2023-01-30T04:15:18.821Z,1014.70
2023-01-30T04:16:13.103Z,1014.53
2023-01-30T04:17:13.197Z,1014.55
2023-01-30T04:18:13.204Z,1014.53
2023-01-30T04:19:13.200Z,1014.48
2023-01-30T04:20:13.191Z,1014.57
2023-01-30T04:21:13.272Z,1014.43
2023-01-30T04:22:13.210Z,1014.47
2023-01-30T04:23:13.130Z,1014.54
2023-01-30T04:24:12.998Z,1014.46
2023-01-30T04:25:13.203Z,1014.42
2023-01-30T04:26:13.408Z,1014.37
2023-01-30T04:27:13.359Z,1014.22
2023-01-30T04:28:13.264Z,1014.42
2023-01-30T04:29:13.099Z,1014.33
2023-01-30T04:30:13.026Z,1014.40
2023-01-30T04:31:13.106Z,1014.43
2023-01-30T04:32:13.145Z,1014.37
2023-01-30T04:33:13.299Z,1014.45
2023-01-30T04:34:13.187Z,1014.42
2023-01-30T04:35:13.169Z,1014.33
2023-01-30T04:36:13.126Z,1014.37
2023-01-30T04:37:13.455Z,1014.30
2023-01-30T04:38:13.490Z,1014.15
2023-01-30T04:39:13.579Z,1014.32
2023-01-30T04:40:13.888Z,1014.32
2023-01-30T04:41:12.783Z,1014.35
2023-01-30T04:42:14.005Z,1014.34
2023-01-30T04:43:13.397Z,1014.39
2023-01-30T04:44:13.420Z,1014.31
2023-01-30T04:45:13.353Z,1014.41
2023-01-30T04:46:13.348Z,1014.47
2023-01-30T04:47:13.417Z,1014.43
2023-01-30T04:48:13.331Z,1014.30
2023-01-30T04:49:13.582Z,1014.44
2023-01-30T04:50:13.509Z,1014.41
2023-01-30T04:51:13.864Z,1014.35
2023-01-30T04:52:14.269Z,1014.28
2023-01-30T04:53:13.048Z,1014.22
2023-01-30T04:54:13.005Z,1014.28
2023-01-30T04:55:13.099Z,1014.30
2023-01-30T04:56:12.957Z,1014.15
2023-01-30T04:57:12.989Z,1014.24
2023-01-30T04:58:12.942Z,1014.23
2023-01-30T04:59:13.231Z,1014.17
2023-01-30T05:00:13.591Z,1014.15
2023-01-30T05:01:13.497Z,1014.07
2023-01-30T05:02:13.825Z,1014.05
2023-01-30T05:03:13.845Z,1014.08
2023-01-30T05:04:13.751Z,1014.04
2023-01-30T05:05:13.779Z,1014.08
2023-01-30T05:06:13.857Z,1014.02
2023-01-30T05:07:13.694Z,1014.02
2023-01-30T05:08:13.628Z,1014.11
2023-01-30T05:09:13.611Z,1014.17
2023-01-30T05:10:13.822Z,1014.28
2023-01-30T05:11:13.757Z,1014.21
2023-01-30T05:12:13.582Z,1014.21
2023-01-30T05:13:13.617Z,1014.16
2023-01-30T05:14:13.644Z,1014.16
2023-01-30T05:15:13.609Z,1014.17
2023-01-30T05:16:13.632Z,1014.16
2023-01-30T05:17:13.824Z,1014.11
2023-01-30T05:18:13.389Z,1014.10
2023-01-30T05:19:13.286Z,1014.11
2023-01-30T05:20:13.396Z,1014.15
2023-01-30T05:21:13.385Z,1014.16
2023-01-30T05:22:13.474Z,1014.16
2023-01-30T05:23:13.605Z,1014.11
2023-01-30T05:24:13.712Z,1014.01
2023-01-30T05:25:13.925Z,1014.17
2023-01-30T05:26:12.881Z,1014.09
2023-01-30T05:27:13.101Z,1014.15
2023-01-30T05:28:13.160Z,1014.11
2023-01-30T05:29:13.400Z,1014.06
2023-01-30T05:30:13.264Z,1013.94
2023-01-30T05:31:13.341Z,1014.04
2023-01-30T05:32:13.580Z,1013.98
2023-01-30T05:33:13.557Z,1014.09
2023-01-30T05:34:13.427Z,1014.05
2023-01-30T05:35:13.349Z,1013.99
2023-01-30T05:36:13.219Z,1014.05
2023-01-30T05:37:13.515Z,1014.06
2023-01-30T05:38:13.459Z,1014.08
2023-01-30T05:39:13.348Z,1013.97
2023-01-30T05:40:13.399Z,1014.01
2023-01-30T05:41:13.330Z,1013.99
2023-01-30T05:42:13.382Z,1014.02
2023-01-30T05:43:13.666Z,1013.99
2023-01-30T05:44:13.790Z,1013.98
2023-01-30T05:45:13.804Z,1013.98
2023-01-30T05:46:13.788Z,1013.97
2023-01-30T05:47:13.974Z,1013.97
2023-01-30T05:48:12.973Z,1013.88
2023-01-30T05:49:12.919Z,1013.92
2023-01-30T05:50:12.816Z,1013.70
2023-01-30T05:51:13.851Z,1013.86
2023-01-30T05:52:14.089Z,1013.98
2023-01-30T05:53:13.188Z,1013.85
2023-01-30T05:54:13.065Z,1013.90
2023-01-30T05:55:13.171Z,1013.92
2023-01-30T05:56:13.048Z,1013.79
2023-01-30T05:57:13.099Z,1013.80
2023-01-30T05:58:13.015Z,1014.05
2023-01-30T05:59:12.903Z,1013.87
2023-01-30T06:00:13.075Z,1013.89
2023-01-30T06:01:13.020Z,1013.90
2023-01-30T06:02:13.031Z,1013.95
2023-01-30T06:03:13.126Z,1013.84
2023-01-30T06:04:13.124Z,1013.95
2023-01-30T06:05:18.525Z,1013.94
2023-01-30T06:06:13.804Z,1013.97
2023-01-30T06:07:13.995Z,1014.00
2023-01-30T06:08:12.880Z,1014.09
2023-01-30T06:09:12.802Z,1013.94
2023-01-30T06:10:13.771Z,1013.98
2023-01-30T06:11:14.131Z,1013.99
2023-01-30T06:12:13.213Z,1013.98
2023-01-30T06:13:13.682Z,1013.93
2023-01-30T06:14:13.891Z,1013.99
2023-01-30T06:15:12.930Z,1013.99
2023-01-30T06:16:13.041Z,1013.84
2023-01-30T06:17:13.128Z,1014.04
2023-01-30T06:18:13.265Z,1013.98
2023-01-30T06:19:13.187Z,1013.92
2023-01-30T06:20:13.417Z,1013.96
2023-01-30T06:21:13.561Z,1014.00
2023-01-30T06:22:14.865Z,1013.98
2023-01-30T06:23:12.967Z,1013.95
2023-01-30T06:24:12.906Z,1014.05
2023-01-30T06:25:13.014Z,1014.00
2023-01-30T06:26:13.271Z,1014.10
2023-01-30T06:27:13.883Z,1014.07
2023-01-30T06:28:13.041Z,1014.07
2023-01-30T06:29:13.436Z,1014.14
2023-01-30T06:30:13.615Z,1014.28
2023-01-30T06:31:13.587Z,1014.14
2023-01-30T06:32:13.847Z,1014.23
2023-01-30T06:33:13.783Z,1014.17
2023-01-30T06:34:13.948Z,1014.17
2023-01-30T06:35:13.010Z,1014.20
2023-01-30T06:36:13.008Z,1014.14
2023-01-30T06:37:13.183Z,1014.19
2023-01-30T06:38:13.531Z,1014.31
2023-01-30T06:39:13.748Z,1014.19
2023-01-30T06:40:13.701Z,1014.20
2023-01-30T06:41:13.723Z,1014.09
2023-01-30T06:42:13.890Z,1014.10
2023-01-30T06:43:13.216Z,1014.22
2023-01-30T06:44:13.623Z,1014.15
2023-01-30T06:45:13.519Z,1014.29
2023-01-30T06:46:13.777Z,1014.40
2023-01-30T06:47:13.727Z,1014.32
2023-01-30T06:48:13.547Z,1014.34
2023-01-30T06:49:13.440Z,1014.39
2023-01-30T06:50:13.391Z,1014.39
2023-01-30T06:51:13.373Z,1014.45
2023-01-30T06:52:13.532Z,1014.31
2023-01-30T06:53:14.559Z,1014.42
2023-01-30T06:54:13.562Z,1014.33
2023-01-30T06:55:13.465Z,1014.36
2023-01-30T06:56:13.455Z,1014.39
2023-01-30T06:57:13.440Z,1014.37
2023-01-30T06:58:13.415Z,1014.34
2023-01-30T06:59:13.274Z,1014.32
2023-01-30T07:00:13.481Z,1014.42
2023-01-30T07:01:13.578Z,1014.43
2023-01-30T07:02:13.999Z,1014.38
2023-01-30T07:03:13.777Z,1014.38
2023-01-30T07:04:13.786Z,1014.49
2023-01-30T07:05:13.812Z,1014.44
2023-01-30T07:06:13.724Z,1014.34
2023-01-30T07:07:13.739Z,1014.32
2023-01-30T07:08:13.677Z,1014.36
2023-01-30T07:09:13.575Z,1014.37
2023-01-30T07:10:13.756Z,1014.42
2023-01-30T07:11:13.805Z,1014.36
2023-01-30T07:12:13.960Z,1014.40
2023-01-30T07:13:12.876Z,1014.42
2023-01-30T07:14:14.102Z,1014.38
2023-01-30T07:15:13.502Z,1014.24
2023-01-30T07:16:13.588Z,1014.21
2023-01-30T07:17:13.436Z,1014.28
2023-01-30T07:18:13.654Z,1014.25
2023-01-30T07:19:13.672Z,1014.46
2023-01-30T07:20:13.516Z,1014.33
2023-01-30T07:21:13.905Z,1014.27
2023-01-30T07:22:13.256Z,1014.36
2023-01-30T07:23:13.241Z,1014.44
2023-01-30T07:24:13.298Z,1014.37
2023-01-30T07:25:13.417Z,1014.33
2023-01-30T07:26:13.426Z,1014.37
2023-01-30T07:27:13.315Z,1014.26
2023-01-30T07:28:13.361Z,1014.27
2023-01-30T07:29:13.292Z,1014.35
2023-01-30T07:30:13.415Z,1014.36
2023-01-30T07:31:13.820Z,1014.32
2023-01-30T07:32:13.712Z,1014.37
2023-01-30T07:33:13.666Z,1014.46
2023-01-30T07:34:13.697Z,1014.45
2023-01-30T07:35:13.592Z,1014.54
2023-01-30T07:36:13.607Z,1014.46
2023-01-30T07:37:13.993Z,1014.59
2023-01-30T07:38:12.930Z,1014.57
2023-01-30T07:39:12.895Z,1014.52
2023-01-30T07:40:12.739Z,1014.49
2023-01-30T07:41:13.663Z,1014.47
2023-01-30T07:42:13.983Z,1014.46
2023-01-30T07:43:12.910Z,1014.52
2023-01-30T07:44:12.875Z,1014.55
2023-01-30T07:45:13.829Z,1014.57
2023-01-30T07:46:13.881Z,1014.55
2023-01-30T07:47:13.822Z,1014.70
2023-01-30T07:48:13.786Z,1014.63
2023-01-30T07:49:14.086Z,1014.63
2023-01-30T07:50:13.311Z,1014.60
2023-01-30T07:51:13.496Z,1014.66
2023-01-30T07:52:13.584Z,1014.72
2023-01-30T07:53:13.897Z,1014.68
2023-01-30T07:54:12.863Z,1014.80
2023-01-30T07:55:14.025Z,1014.60
2023-01-30T07:56:13.112Z,1014.72
2023-01-30T07:57:13.215Z,1014.60
2023-01-30T07:58:13.296Z,1014.66
2023-01-30T07:59:13.584Z,1014.64
2023-01-30T08:00:13.987Z,1014.75
2023-01-30T08:01:13.460Z,1014.72
2023-01-30T08:02:13.444Z,1014.74
2023-01-30T08:03:13.363Z,1014.72
2023-01-30T08:04:13.391Z,1014.65
2023-01-30T08:05:13.261Z,1014.61
2023-01-30T08:06:13.290Z,1014.73
2023-01-30T08:07:13.284Z,1014.74
2023-01-30T08:08:13.643Z,1014.78
2023-01-30T08:09:13.714Z,1014.65
2023-01-30T08:10:13.681Z,1014.68
2023-01-30T08:11:13.579Z,1014.74
2023-01-30T08:12:13.708Z,1014.67
2023-01-30T08:13:13.822Z,1014.64
2023-01-30T08:14:13.759Z,1014.60
2023-01-30T08:15:14.006Z,1014.64
2023-01-30T08:16:13.034Z,1014.81
2023-01-30T08:17:12.970Z,1014.73
2023-01-30T08:18:12.874Z,1014.78
2023-01-30T08:19:14.104Z,1014.75
2023-01-30T08:20:13.139Z,1014.83
2023-01-30T08:21:13.087Z,1014.78
2023-01-30T08:22:13.885Z,1014.87
2023-01-30T08:23:12.779Z,1014.79
2023-01-30T08:24:13.873Z,1014.81
2023-01-30T08:25:13.829Z,1014.80
2023-01-30T08:26:13.924Z,1014.75
2023-01-30T08:27:13.235Z,1014.91
2023-01-30T08:28:13.177Z,1014.82
2023-01-30T08:29:13.105Z,1014.91
2023-01-30T08:30:13.124Z,1014.92
2023-01-30T08:31:13.114Z,1014.96
2023-01-30T08:32:14.921Z,1014.91
2023-01-30T08:33:12.979Z,1014.99
2023-01-30T08:34:12.945Z,1014.92
2023-01-30T08:35:12.920Z,1014.95
2023-01-30T08:36:12.885Z,1014.99
2023-01-30T08:37:12.940Z,1014.97
2023-01-30T08:38:12.792Z,1015.02
2023-01-30T08:39:13.798Z,1014.91
2023-01-30T08:40:13.808Z,1014.88
2023-01-30T08:41:13.713Z,1014.94
2023-01-30T08:42:13.757Z,1014.96
2023-01-30T08:43:13.594Z,1014.99
2023-01-30T08:44:13.505Z,1014.97
2023-01-30T08:45:13.410Z,1015.02
2023-01-30T08:46:13.769Z,1015.04
2023-01-30T08:47:13.724Z,1015.03
2023-01-30T08:48:13.689Z,1015.04
2023-01-30T08:49:13.942Z,1014.97
2023-01-30T08:50:12.839Z,1014.87
2023-01-30T08:51:13.759Z,1014.91
2023-01-30T08:52:13.710Z,1015.01
2023-01-30T08:53:13.713Z,1014.95
2023-01-30T08:54:13.682Z,1014.99
2023-01-30T08:55:13.749Z,1015.00
2023-01-30T08:56:13.664Z,1014.88
2023-01-30T08:57:14.328Z,1015.01
2023-01-30T08:58:13.214Z,1015.06
2023-01-30T08:59:13.184Z,1015.00
2023-01-30T09:00:13.218Z,1014.95
2023-01-30T09:01:13.212Z,1014.95
2023-01-30T09:02:13.887Z,1014.96
2023-01-30T09:03:12.961Z,1015.15
2023-01-30T09:04:13.061Z,1015.16
2023-01-30T09:05:13.075Z,1014.94
2023-01-30T09:06:12.976Z,1015.10
2023-01-30T09:07:12.929Z,1015.22
2023-01-30T09:08:12.911Z,1015.03
2023-01-30T09:09:13.366Z,1015.17
2023-01-30T09:10:13.453Z,1015.10
2023-01-30T09:11:13.414Z,1015.17
2023-01-30T09:12:14.236Z,1015.06
2023-01-30T09:13:13.200Z,1015.17
2023-01-30T09:14:13.225Z,1015.29
2023-01-30T09:15:13.189Z,1015.35
2023-01-30T09:16:13.111Z,1015.26
2023-01-30T09:17:13.111Z,1015.36
2023-01-30T09:18:13.096Z,1015.34
2023-01-30T09:19:13.087Z,1015.24
2023-01-30T09:20:13.032Z,1015.17
2023-01-30T09:21:12.899Z,1015.17
2023-01-30T09:22:12.855Z,1015.28
2023-01-30T09:23:13.785Z,1015.21
2023-01-30T09:24:13.629Z,1015.23
2023-01-30T09:25:13.597Z,1015.36
2023-01-30T09:26:13.586Z,1015.38
2023-01-30T09:27:13.553Z,1015.15
2023-01-30T09:28:13.481Z,1015.30
2023-01-30T09:29:13.699Z,1015.27
2023-01-30T09:30:13.945Z,1015.28
2023-01-30T09:31:13.574Z,1015.41
2023-01-30T09:32:13.613Z,1015.32
2023-01-30T09:33:13.656Z,1015.31
2023-01-30T09:34:13.786Z,1015.34
2023-01-30T09:35:13.814Z,1015.32
2023-01-30T09:36:14.046Z,1015.23
2023-01-30T09:37:13.272Z,1015.29
2023-01-30T09:38:13.269Z,1015.23
2023-01-30T09:39:13.310Z,1014.96
2023-01-30T09:40:13.298Z,1015.15
2023-01-30T09:41:13.339Z,1015.21
2023-01-30T09:42:14.352Z,1015.28
2023-01-30T09:43:13.456Z,1015.33
2023-01-30T09:44:13.942Z,1015.36
2023-01-30T09:45:12.910Z,1015.33
2023-01-30T09:46:13.077Z,1015.29
2023-01-30T09:47:13.205Z,1015.38
2023-01-30T09:48:13.496Z,1015.52
2023-01-30T09:49:13.110Z,1015.29
2023-01-30T09:50:13.524Z,1015.43
2023-01-30T09:51:14.551Z,1015.53
2023-01-30T09:52:13.454Z,1015.70
2023-01-30T09:53:13.914Z,1015.55
2023-01-30T09:54:13.093Z,1015.67
2023-01-30T09:55:13.456Z,1015.50
2023-01-30T09:56:13.511Z,1015.47
2023-01-30T09:57:21.687Z,1015.59
2023-01-30T09:58:13.517Z,1015.42
2023-01-30T09:59:13.489Z,1015.64
2023-01-30T10:00:13.389Z,1015.66
2023-01-30T10:01:13.307Z,1015.53
2023-01-30T10:02:13.228Z,1015.67
2023-01-30T10:03:13.165Z,1015.52
2023-01-30T10:04:41.979Z,1015.70
2023-01-30T10:05:13.200Z,1015.77
2023-01-30T10:06:13.156Z,1015.70
2023-01-30T10:07:18.180Z,1015.92
2023-01-30T10:08:13.545Z,1015.69
2023-01-30T10:09:13.544Z,1015.84
2023-01-30T10:11:13.828Z,1015.77
2023-01-30T10:12:14.083Z,1015.76
2023-01-30T10:13:13.107Z,1015.83
2023-01-30T10:14:13.036Z,1015.73
2023-01-30T10:15:13.046Z,1015.70
2023-01-30T10:16:13.292Z,1015.78
2023-01-30T10:17:13.398Z,1015.59
2023-01-30T10:18:13.411Z,1015.74
2023-01-30T10:19:18.038Z,1015.59
2023-01-30T10:20:13.627Z,1015.73
2023-01-30T10:21:13.761Z,1015.69
2023-01-30T10:22:13.767Z,1015.62
2023-01-30T10:23:13.990Z,1015.40
2023-01-30T10:24:12.947Z,1015.66
2023-01-30T10:25:12.971Z,1015.67
2023-01-30T10:26:13.247Z,1015.58
2023-01-30T10:27:13.358Z,1015.61
2023-01-30T10:28:13.383Z,1015.68
2023-01-30T10:29:13.404Z,1015.60
2023-01-30T10:30:13.386Z,1015.70
2023-01-30T10:31:13.614Z,1015.48
2023-01-30T10:32:13.671Z,1015.61
2023-01-30T10:33:14.034Z,1015.67
2023-01-30T10:34:13.244Z,1015.59
2023-01-30T10:35:13.093Z,1015.60
2023-01-30T10:36:13.186Z,1015.56
2023-01-30T10:37:13.410Z,1015.63
2023-01-30T10:38:13.577Z,1015.51
2023-01-30T10:39:13.675Z,1015.42
2023-01-30T10:40:13.727Z,1015.42
2023-01-30T10:41:13.789Z,1015.39
2023-01-30T10:42:13.953Z,1015.49
2023-01-30T10:43:13.248Z,1015.46
2023-01-30T10:44:13.662Z,1015.43
2023-01-30T10:45:13.749Z,1015.41
2023-01-30T10:46:13.866Z,1015.47
2023-01-30T10:47:13.471Z,1015.39
2023-01-30T10:48:13.101Z,1015.40
2023-01-30T10:49:13.110Z,1015.44
2023-01-30T10:50:14.896Z,1015.36
2023-01-30T10:51:12.791Z,1015.63
2023-01-30T10:52:13.672Z,1015.47
2023-01-30T10:53:13.738Z,1015.40
2023-01-30T10:54:13.819Z,1015.59
2023-01-30T10:55:13.725Z,1015.56
2023-01-30T10:56:13.660Z,1015.57
2023-01-30T10:57:13.743Z,1015.59
2023-01-30T10:58:13.782Z,1015.57
2023-01-30T10:59:14.014Z,1015.50
2023-01-30T11:00:13.080Z,1015.76
2023-01-30T11:01:13.013Z,1015.47
2023-01-30T11:02:12.955Z,1015.56
2023-01-30T11:03:13.102Z,1015.55
2023-01-30T11:04:13.176Z,1015.61
2023-01-30T11:05:13.110Z,1015.74
2023-01-30T11:06:13.352Z,1015.60
2023-01-30T11:07:13.255Z,1015.73
2023-01-30T11:08:13.465Z,1015.63
2023-01-30T11:09:13.839Z,1015.66
2023-01-30T11:10:15.508Z,1015.72
2023-01-30T11:11:13.544Z,1015.64
2023-01-30T11:12:13.614Z,1015.65
2023-01-30T11:13:13.816Z,1015.64
2023-01-30T11:14:19.014Z,1015.60
2023-01-30T11:15:13.090Z,1015.85
2023-01-30T11:16:14.163Z,1015.69
2023-01-30T11:17:13.096Z,1015.75
2023-01-30T11:18:41.410Z,1015.74
2023-01-30T11:19:22.117Z,1015.65
2023-01-30T11:20:13.979Z,1015.74
2023-01-30T11:21:13.483Z,1015.78
2023-01-30T11:22:13.532Z,1015.73
2023-01-30T11:23:13.581Z,1015.73
2023-01-30T11:24:13.585Z,1015.73
2023-01-30T11:25:13.732Z,1015.70
2023-01-30T11:26:13.927Z,1015.64
2023-01-30T11:27:12.955Z,1015.70
2023-01-30T11:28:12.891Z,1015.56
2023-01-30T11:29:12.830Z,1015.90
2023-01-30T11:30:13.795Z,1015.59
2023-01-30T11:31:13.843Z,1015.66
2023-01-30T11:32:13.056Z,1015.73
2023-01-30T11:33:13.437Z,1015.87
2023-01-30T11:34:13.941Z,1015.72
2023-01-30T11:35:12.921Z,1015.65
2023-01-30T11:36:13.198Z,1015.71
2023-01-30T11:37:13.227Z,1015.86
2023-01-30T11:38:13.532Z,1015.74
2023-01-30T11:39:13.555Z,1015.67
2023-01-30T11:40:13.763Z,1015.57
2023-01-30T11:41:13.969Z,1015.71
2023-01-30T11:42:12.861Z,1015.62
2023-01-30T11:43:13.878Z,1015.76
2023-01-30T11:44:12.774Z,1015.70
2023-01-30T11:45:17.092Z,1015.80
2023-01-30T11:46:12.997Z,1015.84
2023-01-30T11:47:13.598Z,1015.71
2023-01-30T11:48:27.977Z,1015.59
2023-01-30T11:49:45.056Z,1015.83
2023-01-30T11:50:29.793Z,1015.83
2023-01-30T11:51:14.188Z,1015.86
2023-01-30T11:52:13.138Z,1015.87
2023-01-30T11:53:13.558Z,1015.83
2023-01-30T11:54:13.816Z,1015.85
2023-01-30T11:55:14.070Z,1015.88
2023-01-30T11:56:13.277Z,1015.89
2023-01-30T11:57:13.455Z,1016.14
2023-01-30T11:58:13.635Z,1015.96
2023-01-30T11:59:14.033Z,1015.95
2023-01-30T12:00:13.199Z,1015.90
2023-01-30T12:01:13.156Z,1015.93
2023-01-30T12:02:13.412Z,1015.91
2023-01-30T12:03:13.711Z,1015.79
2023-01-30T12:04:13.660Z,1015.89
2023-01-30T12:05:13.799Z,1015.80
2023-01-30T12:06:14.381Z,1015.92